createdAt,value
2023-01-05T00:00:13.130Z,0.00
2023-01-05T00:01:13.035Z,0.00
2023-01-05T00:02:15.275Z,0.00
2023-01-05T00:03:13.023Z,0.00
2023-01-05T00:04:13.149Z,0.00
2023-01-05T00:05:13.023Z,0.00
2023-01-05T00:06:13.056Z,0.00
2023-01-05T00:07:13.020Z,0.00
2023-01-05T00:08:13.013Z,0.00
2023-01-05T00:09:13.030Z,0.00
2023-01-05T00:10:12.960Z,0.00
2023-01-05T00:11:12.975Z,0.00
2023-01-05T00:12:13.016Z,0.00
2023-01-05T00:13:13.022Z,0.00
2023-01-05T00:14:13.961Z,0.00
2023-01-05T00:15:12.998Z,0.00
2023-01-05T00:16:14.001Z,0.00
2023-01-05T00:17:12.977Z,0.00
2023-01-05T00:18:12.965Z,0.00
2023-01-05T00:19:13.074Z,0.00
2023-01-05T00:20:12.960Z,0.00
2023-01-05T00:21:12.997Z,0.00
2023-01-05T00:22:12.916Z,0.00
2023-01-05T00:23:13.612Z,0.00
2023-01-05T00:24:12.901Z,0.00
2023-01-05T00:25:13.167Z,0.00
2023-01-05T00:26:13.906Z,0.00
2023-01-05T00:27:12.914Z,0.00
2023-01-05T00:28:12.885Z,0.00
2023-01-05T00:29:12.967Z,0.00
2023-01-05T00:30:12.994Z,0.00
2023-01-05T00:31:12.870Z,0.00
2023-01-05T00:32:12.862Z,0.00
2023-01-05T00:33:12.881Z,0.00
2023-01-05T00:34:12.883Z,0.00
2023-01-05T00:35:12.919Z,0.00
2023-01-05T00:36:12.927Z,0.00
2023-01-05T00:37:12.848Z,0.00
2023-01-05T00:38:12.822Z,0.00
2023-01-05T00:39:12.823Z,0.00
2023-01-05T00:40:12.894Z,0.00
2023-01-05T00:41:12.834Z,0.00
2023-01-05T00:42:12.813Z,0.00
2023-01-05T00:43:12.816Z,0.00
2023-01-05T00:44:12.810Z,0.00
2023-01-05T00:45:12.829Z,0.00
2023-01-05T00:46:12.915Z,0.00
2023-01-05T00:47:12.785Z,0.00
2023-01-05T00:48:12.797Z,0.00
2023-01-05T00:49:12.751Z,0.00
2023-01-05T00:50:12.782Z,0.00
2023-01-05T00:51:12.742Z,0.00
2023-01-05T00:52:12.753Z,0.00
2023-01-05T00:53:12.731Z,0.00
2023-01-05T00:54:12.739Z,0.00
2023-01-05T00:55:12.753Z,0.00
2023-01-05T00:56:12.725Z,0.00
2023-01-05T00:57:12.710Z,0.00
2023-01-05T00:58:12.699Z,0.00
2023-01-05T00:59:12.732Z,0.00
2023-01-05T01:00:12.714Z,0.00
2023-01-05T01:01:12.780Z,0.00
2023-01-05T01:02:12.755Z,0.00
2023-01-05T01:03:12.793Z,0.00
2023-01-05T01:04:12.683Z,0.00
2023-01-05T01:05:12.706Z,0.00
2023-01-05T01:06:12.676Z,0.00
2023-01-05T01:07:12.656Z,0.00
2023-01-05T01:08:12.687Z,0.00
2023-01-05T01:09:12.647Z,0.00
2023-01-05T01:10:12.659Z,0.00
2023-01-05T01:11:12.662Z,0.00
2023-01-05T01:12:12.671Z,0.00
2023-01-05T01:13:12.614Z,0.00
2023-01-05T01:14:12.624Z,0.00
2023-01-05T01:15:12.632Z,0.00
2023-01-05T01:16:12.672Z,0.00
2023-01-05T01:17:12.588Z,0.00
2023-01-05T01:18:12.629Z,0.00
2023-01-05T01:19:12.645Z,0.00
2023-01-05T01:20:12.611Z,0.00
2023-01-05T01:21:12.562Z,0.00
2023-01-05T01:22:12.575Z,0.00
2023-01-05T01:23:12.554Z,0.00
2023-01-05T01:24:12.575Z,0.00
2023-01-05T01:25:12.530Z,0.00
2023-01-05T01:26:12.533Z,0.00
2023-01-05T01:27:12.556Z,0.00
2023-01-05T01:28:12.532Z,0.00
2023-01-05T01:29:12.556Z,0.00
2023-01-05T01:30:12.514Z,0.00
2023-01-05T01:31:12.545Z,0.00
2023-01-05T01:32:12.527Z,0.00
2023-01-05T01:33:12.523Z,0.00
2023-01-05T01:34:12.509Z,0.00
2023-01-05T01:35:12.526Z,0.00
2023-01-05T01:36:12.502Z,0.00
2023-01-05T01:37:12.469Z,0.00
2023-01-05T01:38:12.458Z,0.00
2023-01-05T01:39:12.482Z,0.00
2023-01-05T01:40:12.504Z,0.00
2023-01-05T01:41:12.467Z,0.00
2023-01-05T01:42:12.481Z,0.00
2023-01-05T01:43:12.458Z,0.00
2023-01-05T01:44:12.490Z,0.00
2023-01-05T01:45:12.431Z,0.00
2023-01-05T01:46:12.566Z,0.00
2023-01-05T01:47:12.402Z,0.00
2023-01-05T01:48:12.419Z,0.00
2023-01-05T01:49:12.427Z,0.00
2023-01-05T01:50:12.416Z,0.00
2023-01-05T01:51:12.494Z,0.00
2023-01-05T01:52:12.393Z,0.00
2023-01-05T01:53:12.395Z,0.00
2023-01-05T01:54:12.413Z,0.00
2023-01-05T01:55:12.424Z,0.00
2023-01-05T01:56:12.385Z,0.00
2023-01-05T01:57:12.398Z,0.00
2023-01-05T01:58:12.340Z,0.00
2023-01-05T01:59:12.338Z,0.00
2023-01-05T02:00:12.350Z,0.00
2023-01-05T02:01:12.496Z,0.00
2023-01-05T02:02:12.478Z,0.00
2023-01-05T02:03:12.336Z,0.00
2023-01-05T02:04:12.429Z,0.00
2023-01-05T02:05:12.356Z,0.00
2023-01-05T02:06:12.314Z,0.00
2023-01-05T02:07:12.292Z,0.00
2023-01-05T02:08:12.299Z,0.00
2023-01-05T02:09:12.429Z,0.00
2023-01-05T02:10:12.297Z,0.00
2023-01-05T02:11:12.268Z,0.00
2023-01-05T02:12:12.299Z,0.00
2023-01-05T02:13:12.270Z,0.00
2023-01-05T02:14:12.298Z,0.00
2023-01-05T02:15:12.279Z,0.00
2023-01-05T02:16:12.243Z,0.00
2023-01-05T02:17:12.354Z,0.00
2023-01-05T02:18:12.278Z,0.00
2023-01-05T02:19:12.241Z,0.00
2023-01-05T02:20:12.271Z,0.00
2023-01-05T02:21:16.964Z,0.00
2023-01-05T02:22:13.221Z,0.00
2023-01-05T02:23:12.255Z,0.00
2023-01-05T02:24:12.255Z,0.00
2023-01-05T02:25:12.241Z,0.00
2023-01-05T02:26:12.241Z,0.00
2023-01-05T02:27:12.219Z,0.00
2023-01-05T02:28:12.229Z,0.00
2023-01-05T02:29:12.220Z,0.00
2023-01-05T02:30:12.235Z,0.00
2023-01-05T02:31:12.220Z,0.00
2023-01-05T02:32:12.129Z,0.00
2023-01-05T02:33:12.129Z,0.00
2023-01-05T02:34:12.150Z,0.00
2023-01-05T02:35:12.262Z,0.00
2023-01-05T02:36:12.123Z,0.00
2023-01-05T02:37:12.092Z,0.00
2023-01-05T02:38:12.113Z,0.00
2023-01-05T02:39:12.095Z,0.00
2023-01-05T02:40:12.154Z,0.00
2023-01-05T02:41:12.112Z,0.00
2023-01-05T02:42:12.124Z,0.00
2023-01-05T02:43:12.081Z,0.00
2023-01-05T02:44:12.118Z,0.00
2023-01-05T02:45:12.113Z,0.00
2023-01-05T02:46:12.163Z,0.00
2023-01-05T02:47:12.073Z,0.00
2023-01-05T02:48:12.086Z,0.00
2023-01-05T02:49:12.087Z,0.00
2023-01-05T02:50:12.083Z,0.00
2023-01-05T02:51:12.105Z,0.00
2023-01-05T02:52:12.086Z,0.00
2023-01-05T02:53:13.011Z,0.00
2023-01-05T02:54:12.047Z,0.00
2023-01-05T02:55:12.055Z,0.00
2023-01-05T02:56:12.063Z,0.00
2023-01-05T02:57:12.064Z,0.00
2023-01-05T02:58:12.031Z,0.00
2023-01-05T02:59:12.018Z,0.00
2023-01-05T03:00:12.008Z,0.00
2023-01-05T03:01:12.098Z,0.00
2023-01-05T03:02:12.140Z,0.00
2023-01-05T03:03:12.041Z,0.00
2023-01-05T03:04:11.968Z,0.00
2023-01-05T03:05:11.995Z,0.00
2023-01-05T03:06:11.977Z,0.00
2023-01-05T03:07:11.996Z,0.00
2023-01-05T03:08:12.082Z,0.00
2023-01-05T03:09:11.960Z,0.00
2023-01-05T03:10:11.965Z,0.00
2023-01-05T03:11:11.959Z,0.00
2023-01-05T03:12:11.910Z,0.00
2023-01-05T03:13:12.010Z,0.00
2023-01-05T03:14:11.936Z,0.00
2023-01-05T03:15:11.943Z,0.00
2023-01-05T03:16:11.952Z,0.00
2023-01-05T03:17:11.891Z,0.00
2023-01-05T03:18:11.908Z,0.00
2023-01-05T03:19:11.905Z,0.00
2023-01-05T03:20:11.899Z,0.00
2023-01-05T03:21:11.887Z,0.00
2023-01-05T03:22:11.896Z,0.00
2023-01-05T03:23:11.911Z,0.00
2023-01-05T03:24:11.925Z,0.00
2023-01-05T03:25:11.855Z,0.00
2023-01-05T03:26:11.862Z,0.00
2023-01-05T03:27:11.832Z,0.00
2023-01-05T03:28:11.852Z,0.00
2023-01-05T03:29:11.841Z,0.00
2023-01-05T03:30:11.879Z,0.00
2023-01-05T03:31:11.868Z,0.00
2023-01-05T03:32:11.824Z,0.00
2023-01-05T03:33:11.820Z,0.00
2023-01-05T03:34:11.766Z,0.00
2023-01-05T03:35:11.893Z,0.00
2023-01-05T03:36:11.764Z,0.00
2023-01-05T03:37:11.802Z,0.00
2023-01-05T03:38:16.292Z,0.00
2023-01-05T03:39:13.776Z,0.00
2023-01-05T03:40:11.768Z,0.00
2023-01-05T03:41:12.794Z,0.00
2023-01-05T03:42:11.777Z,0.00
2023-01-05T03:43:11.777Z,0.00
2023-01-05T03:44:11.749Z,0.00
2023-01-05T03:45:11.699Z,0.00
2023-01-05T03:46:11.831Z,0.00
2023-01-05T03:47:11.753Z,0.00
2023-01-05T03:48:11.728Z,0.00
2023-01-05T03:49:11.712Z,0.00
2023-01-05T03:50:11.683Z,0.00
2023-01-05T03:51:11.724Z,0.00
2023-01-05T03:52:11.735Z,0.00
2023-01-05T03:53:11.695Z,0.00
2023-01-05T03:54:11.671Z,0.00
2023-01-05T03:55:11.677Z,0.00
2023-01-05T03:56:11.855Z,0.00
2023-01-05T03:57:11.650Z,0.00
2023-01-05T03:58:11.679Z,0.00
2023-01-05T03:59:11.676Z,0.00
2023-01-05T04:00:11.639Z,0.00
2023-01-05T04:01:11.831Z,0.00
2023-01-05T04:02:11.778Z,0.00
2023-01-05T04:03:11.822Z,0.00
2023-01-05T04:04:11.663Z,0.00
2023-01-05T04:05:11.637Z,0.00
2023-01-05T04:06:11.630Z,0.00
2023-01-05T04:07:11.622Z,0.00
2023-01-05T04:08:11.605Z,0.00
2023-01-05T04:09:11.606Z,0.00
2023-01-05T04:10:11.597Z,0.00
2023-01-05T04:11:11.619Z,0.00
2023-01-05T04:12:11.618Z,0.00
2023-01-05T04:13:11.569Z,0.00
2023-01-05T04:14:11.584Z,0.00
2023-01-05T04:15:11.559Z,0.00
2023-01-05T04:16:11.646Z,0.00
2023-01-05T04:17:11.577Z,0.00
2023-01-05T04:18:11.496Z,0.00
2023-01-05T04:19:11.535Z,0.00
2023-01-05T04:20:11.526Z,0.00
2023-01-05T04:21:11.509Z,0.00
2023-01-05T04:22:11.535Z,0.00
2023-01-05T04:23:11.523Z,0.00
2023-01-05T04:24:11.550Z,0.00
2023-01-05T04:25:11.545Z,0.00
2023-01-05T04:26:11.492Z,0.00
2023-01-05T04:27:11.522Z,0.00
2023-01-05T04:28:11.485Z,0.00
2023-01-05T04:29:11.473Z,0.00
2023-01-05T04:30:11.465Z,0.00
2023-01-05T04:31:11.462Z,0.00
2023-01-05T04:32:11.485Z,0.00
2023-01-05T04:33:11.491Z,0.00
2023-01-05T04:34:11.493Z,0.00
2023-01-05T04:35:11.848Z,0.00
2023-01-05T04:36:11.453Z,0.00
2023-01-05T04:37:11.435Z,0.00
2023-01-05T04:38:11.441Z,0.00
2023-01-05T04:39:11.460Z,0.00
2023-01-05T04:40:12.432Z,0.00
2023-01-05T04:41:11.395Z,0.00
2023-01-05T04:42:11.424Z,0.00
2023-01-05T04:43:11.419Z,0.00
2023-01-05T04:44:11.389Z,0.00
2023-01-05T04:45:11.374Z,0.00
2023-01-05T04:46:11.450Z,0.00
2023-01-05T04:47:11.352Z,0.00
2023-01-05T04:48:11.372Z,0.00
2023-01-05T04:49:11.336Z,0.00
2023-01-05T04:50:11.377Z,0.00
2023-01-05T04:51:11.379Z,0.00
2023-01-05T04:52:11.329Z,0.00
2023-01-05T04:53:11.314Z,0.00
2023-01-05T04:54:11.313Z,0.00
2023-01-05T04:55:11.306Z,0.00
2023-01-05T04:56:11.337Z,0.00
2023-01-05T04:57:11.364Z,0.00
2023-01-05T04:58:12.213Z,0.00
2023-01-05T04:59:12.291Z,0.00
2023-01-05T05:00:11.285Z,0.00
2023-01-05T05:01:43.391Z,0.00
2023-01-05T05:02:11.356Z,0.00
2023-01-05T05:03:11.349Z,0.00
2023-01-05T05:04:11.289Z,0.00
2023-01-05T05:05:11.279Z,0.00
2023-01-05T05:06:11.316Z,0.00
2023-01-05T05:07:11.292Z,0.00
2023-01-05T05:08:11.263Z,0.00
2023-01-05T05:09:11.263Z,0.00
2023-01-05T05:10:11.221Z,0.00
2023-01-05T05:11:11.216Z,0.00
2023-01-05T05:12:11.251Z,0.00
2023-01-05T05:13:11.209Z,0.00
2023-01-05T05:14:11.227Z,0.00
2023-01-05T05:15:11.276Z,0.00
2023-01-05T05:16:11.237Z,0.00
2023-01-05T05:17:11.213Z,0.00
2023-01-05T05:18:11.239Z,0.00
2023-01-05T05:19:11.154Z,0.00
2023-01-05T05:20:11.150Z,0.00
2023-01-05T05:21:11.163Z,0.00
2023-01-05T05:22:11.170Z,0.00
2023-01-05T05:23:11.164Z,0.00
2023-01-05T05:24:11.151Z,0.00
2023-01-05T05:25:11.143Z,0.00
2023-01-05T05:26:11.173Z,0.00
2023-01-05T05:27:11.123Z,0.00
2023-01-05T05:28:11.152Z,0.00
2023-01-05T05:29:11.140Z,0.00
2023-01-05T05:30:11.132Z,0.00
2023-01-05T05:31:11.116Z,0.00
2023-01-05T05:32:11.102Z,0.00
2023-01-05T05:33:11.152Z,0.00
2023-01-05T05:34:11.102Z,0.00
2023-01-05T05:35:11.073Z,0.00
2023-01-05T05:36:11.048Z,0.00
2023-01-05T05:37:11.093Z,0.00
2023-01-05T05:38:11.077Z,0.00
2023-01-05T05:39:11.045Z,0.00
2023-01-05T05:40:11.057Z,0.00
2023-01-05T05:41:11.041Z,0.00
2023-01-05T05:42:11.053Z,0.00
2023-01-05T05:43:11.051Z,0.00
2023-01-05T05:44:11.046Z,0.00
2023-01-05T05:45:11.058Z,0.00
2023-01-05T05:46:11.044Z,0.00
2023-01-05T05:47:11.031Z,0.00
2023-01-05T05:48:10.988Z,0.00
2023-01-05T05:49:11.056Z,0.00
2023-01-05T05:50:10.988Z,0.00
2023-01-05T05:51:11.009Z,0.00
2023-01-05T05:52:10.975Z,0.00
2023-01-05T05:53:10.952Z,0.00
2023-01-05T05:54:11.012Z,0.00
2023-01-05T05:55:10.980Z,0.00
2023-01-05T05:56:10.953Z,0.00
2023-01-05T05:57:10.945Z,0.00
2023-01-05T05:58:10.934Z,0.00
2023-01-05T05:59:10.957Z,0.00
2023-01-05T06:00:10.984Z,0.00
2023-01-05T06:01:11.010Z,0.00
2023-01-05T06:02:10.966Z,0.00
2023-01-05T06:03:11.088Z,0.00
2023-01-05T06:04:10.923Z,0.00
2023-01-05T06:05:10.988Z,0.00
2023-01-05T06:06:10.897Z,0.00
2023-01-05T06:07:10.881Z,0.00
2023-01-05T06:08:10.886Z,0.00
2023-01-05T06:09:10.890Z,0.00
2023-01-05T06:10:10.866Z,0.00
2023-01-05T06:11:10.889Z,0.00
2023-01-05T06:12:10.865Z,0.00
2023-01-05T06:13:10.816Z,0.00
2023-01-05T06:14:10.811Z,0.00
2023-01-05T06:15:10.865Z,0.00
2023-01-05T06:16:10.901Z,0.00
2023-01-05T06:17:10.822Z,0.00
2023-01-05T06:18:10.809Z,0.00
2023-01-05T06:19:10.815Z,0.00
2023-01-05T06:20:11.825Z,0.00
2023-01-05T06:21:10.795Z,0.00
2023-01-05T06:22:10.920Z,0.00
2023-01-05T06:23:10.771Z,0.00
2023-01-05T06:24:10.735Z,0.00
2023-01-05T06:25:10.753Z,0.00
2023-01-05T06:26:10.740Z,0.00
2023-01-05T06:27:10.849Z,0.00
2023-01-05T06:28:12.125Z,0.00
2023-01-05T06:29:10.727Z,0.00
2023-01-05T06:30:10.733Z,0.00
2023-01-05T06:31:10.747Z,0.00
2023-01-05T06:32:10.721Z,0.00
2023-01-05T06:33:10.827Z,0.00
2023-01-05T06:34:10.707Z,0.00
2023-01-05T06:35:10.744Z,0.00
2023-01-05T06:36:10.679Z,0.00
2023-01-05T06:37:10.708Z,0.00
2023-01-05T06:38:10.741Z,0.00
2023-01-05T06:39:10.685Z,0.00
2023-01-05T06:40:10.655Z,0.00
2023-01-05T06:41:10.711Z,0.00
2023-01-05T06:42:10.686Z,0.00
2023-01-05T06:43:10.677Z,0.00
2023-01-05T06:44:10.652Z,0.00
2023-01-05T06:45:10.640Z,0.00
2023-01-05T06:46:10.672Z,0.00
2023-01-05T06:47:10.642Z,0.00
2023-01-05T06:48:10.625Z,0.00
2023-01-05T06:49:10.659Z,0.00
2023-01-05T06:50:10.630Z,0.00
2023-01-05T06:51:10.623Z,0.00
2023-01-05T06:52:15.918Z,0.00
2023-01-05T06:53:11.581Z,0.00
2023-01-05T06:54:10.628Z,0.00
2023-01-05T06:55:10.603Z,0.00
2023-01-05T06:56:10.617Z,0.00
2023-01-05T06:57:10.570Z,4.00
2023-01-05T06:58:10.566Z,4.00
2023-01-05T06:59:10.576Z,0.00
2023-01-05T07:00:10.583Z,0.00
2023-01-05T07:01:10.586Z,4.00
2023-01-05T07:02:10.641Z,4.00
2023-01-05T07:03:10.544Z,4.00
2023-01-05T07:04:10.562Z,4.00
2023-01-05T07:05:10.499Z,4.00
2023-01-05T07:06:14.842Z,8.00
2023-01-05T07:07:10.514Z,8.00
2023-01-05T07:08:10.495Z,12.00
2023-01-05T07:09:10.530Z,16.00
2023-01-05T07:10:10.475Z,16.00
2023-01-05T07:11:10.535Z,24.00
2023-01-05T07:12:10.493Z,32.00
2023-01-05T07:13:10.492Z,36.00
2023-01-05T07:14:10.534Z,36.00
2023-01-05T07:15:10.525Z,40.00
2023-01-05T07:16:10.499Z,52.00
2023-01-05T07:17:10.468Z,72.00
2023-01-05T07:18:10.470Z,96.00
2023-01-05T07:19:10.457Z,120.00
2023-01-05T07:20:10.471Z,128.00
2023-01-05T07:21:10.439Z,136.00
2023-01-05T07:22:10.454Z,152.00
2023-01-05T07:23:10.434Z,164.00
2023-01-05T07:24:10.414Z,160.00
2023-01-05T07:25:10.424Z,144.00
2023-01-05T07:26:10.421Z,132.00
2023-01-05T07:27:10.402Z,120.00
2023-01-05T07:28:10.427Z,116.00
2023-01-05T07:29:10.398Z,116.00
2023-01-05T07:30:10.398Z,132.00
2023-01-05T07:31:10.427Z,152.00
2023-01-05T07:32:10.368Z,176.00
2023-01-05T07:33:10.417Z,184.00
2023-01-05T07:34:10.372Z,180.00
2023-01-05T07:35:10.410Z,224.00
2023-01-05T07:36:10.397Z,288.00
2023-01-05T07:37:10.364Z,356.00
2023-01-05T07:38:10.332Z,416.00
2023-01-05T07:39:10.412Z,444.00
2023-01-05T07:40:10.331Z,404.00
2023-01-05T07:41:10.329Z,324.00
2023-01-05T07:42:10.316Z,276.00
2023-01-05T07:43:10.335Z,280.00
2023-01-05T07:44:10.311Z,344.00
2023-01-05T07:45:10.299Z,452.00
2023-01-05T07:46:10.379Z,552.00
2023-01-05T07:47:10.308Z,600.00
2023-01-05T07:48:10.292Z,652.00
2023-01-05T07:49:11.427Z,708.00
2023-01-05T07:50:10.278Z,800.00
2023-01-05T07:51:10.263Z,820.00
2023-01-05T07:52:10.255Z,776.00
2023-01-05T07:53:10.243Z,672.00
2023-01-05T07:54:10.260Z,636.00
2023-01-05T07:55:10.263Z,612.00
2023-01-05T07:56:10.213Z,648.00
2023-01-05T07:57:10.224Z,728.00
2023-01-05T07:58:10.222Z,796.00
2023-01-05T07:59:10.209Z,736.00
2023-01-05T08:00:10.346Z,632.00
2023-01-05T08:01:10.384Z,576.00
2023-01-05T08:02:10.333Z,536.00
2023-01-05T08:03:10.211Z,496.00
2023-01-05T08:04:10.317Z,456.00
2023-01-05T08:05:10.218Z,456.00
2023-01-05T08:06:10.243Z,448.00
2023-01-05T08:07:10.177Z,484.00
2023-01-05T08:08:10.145Z,472.00
2023-01-05T08:09:10.177Z,444.00
2023-01-05T08:10:10.177Z,388.00
2023-01-05T08:11:10.162Z,340.00
2023-01-05T08:12:10.147Z,332.00
2023-01-05T08:13:10.157Z,348.00
2023-01-05T08:14:10.136Z,384.00
2023-01-05T08:15:10.142Z,448.00
2023-01-05T08:16:10.164Z,504.00
2023-01-05T08:17:10.229Z,540.00
2023-01-05T08:18:10.076Z,680.00
2023-01-05T08:19:11.618Z,816.00
2023-01-05T08:20:11.080Z,844.00
2023-01-05T08:21:10.119Z,960.00
2023-01-05T08:22:10.084Z,1000.00
2023-01-05T08:23:10.108Z,1084.00
2023-01-05T08:24:10.024Z,1256.00
2023-01-05T08:25:10.075Z,1708.00
2023-01-05T08:26:10.024Z,2448.00
2023-01-05T08:27:10.110Z,2800.00
2023-01-05T08:28:10.036Z,2516.00
2023-01-05T08:29:10.055Z,1904.00
2023-01-05T08:30:10.069Z,1524.00
2023-01-05T08:31:10.013Z,1264.00
2023-01-05T08:32:10.092Z,1096.00
2023-01-05T08:33:10.002Z,1084.00
2023-01-05T08:34:10.022Z,1144.00
2023-01-05T08:35:10.023Z,1032.00
2023-01-05T08:36:09.997Z,936.00
2023-01-05T08:37:10.016Z,956.00
2023-01-05T08:38:10.095Z,1004.00
2023-01-05T08:39:09.969Z,972.00
2023-01-05T08:40:09.965Z,856.00
2023-01-05T08:41:09.955Z,816.00
2023-01-05T08:42:09.951Z,764.00
2023-01-05T08:43:09.981Z,720.00
2023-01-05T08:44:09.921Z,708.00
2023-01-05T08:45:09.927Z,728.00
2023-01-05T08:46:10.000Z,796.00
2023-01-05T08:47:09.933Z,1044.00
2023-01-05T08:48:10.928Z,1412.00
2023-01-05T08:49:10.003Z,1784.00
2023-01-05T08:50:09.912Z,1940.00
2023-01-05T08:51:09.863Z,2736.00
2023-01-05T08:52:09.916Z,3856.00
2023-01-05T08:53:09.902Z,4584.00
2023-01-05T08:54:09.903Z,5432.00
2023-01-05T08:55:09.890Z,6280.00
2023-01-05T08:56:09.894Z,6900.00
2023-01-05T08:57:09.845Z,6668.00
2023-01-05T08:58:09.893Z,5192.00
2023-01-05T08:59:10.049Z,6484.00
2023-01-05T09:00:09.862Z,4332.00
2023-01-05T09:01:09.969Z,4848.00
2023-01-05T09:02:09.996Z,2992.00
2023-01-05T09:03:09.983Z,3280.00
2023-01-05T09:04:09.790Z,3584.00
2023-01-05T09:05:09.831Z,2744.00
2023-01-05T09:06:09.846Z,2024.00
2023-01-05T09:07:09.817Z,1604.00
2023-01-05T09:08:09.790Z,1360.00
2023-01-05T09:09:09.801Z,1168.00
2023-01-05T09:10:09.769Z,1184.00
2023-01-05T09:11:09.775Z,1152.00
2023-01-05T09:12:09.779Z,1300.00
2023-01-05T09:13:09.802Z,1680.00
2023-01-05T09:14:09.761Z,1680.00
2023-01-05T09:15:09.757Z,1660.00
2023-01-05T09:16:09.750Z,2196.00
2023-01-05T09:17:10.039Z,3176.00
2023-01-05T09:18:09.749Z,4708.00
2023-01-05T09:19:09.745Z,4920.00
2023-01-05T09:20:09.722Z,4648.00
2023-01-05T09:21:09.764Z,4700.00
2023-01-05T09:22:09.680Z,4240.00
2023-01-05T09:23:09.722Z,3008.00
2023-01-05T09:24:09.709Z,2652.00
2023-01-05T09:25:09.712Z,2416.00
2023-01-05T09:26:09.658Z,2544.00
2023-01-05T09:27:09.701Z,2964.00
2023-01-05T09:28:09.687Z,3404.00
2023-01-05T09:29:09.708Z,4336.00
2023-01-05T09:30:09.671Z,6396.00
2023-01-05T09:31:09.722Z,9104.00
2023-01-05T09:32:09.664Z,13052.00
2023-01-05T09:33:09.646Z,8328.00
2023-01-05T09:34:09.648Z,7328.00
2023-01-05T09:35:09.634Z,6388.00
2023-01-05T09:36:09.670Z,5104.00
2023-01-05T09:37:09.626Z,3592.00
2023-01-05T09:38:09.625Z,2756.00
2023-01-05T09:39:09.630Z,2232.00
2023-01-05T09:40:09.602Z,1652.00
2023-01-05T09:41:09.591Z,1316.00
2023-01-05T09:42:09.610Z,1264.00
2023-01-05T09:43:09.588Z,1468.00
2023-01-05T09:44:09.580Z,2208.00
2023-01-05T09:45:09.564Z,3060.00
2023-01-05T09:46:09.634Z,3292.00
2023-01-05T09:47:09.638Z,2996.00
2023-01-05T09:48:09.546Z,2656.00
2023-01-05T09:49:09.561Z,2904.00
2023-01-05T09:50:09.545Z,3284.00
2023-01-05T09:51:09.530Z,2804.00
2023-01-05T09:52:09.580Z,2164.00
2023-01-05T09:53:09.560Z,1780.00
2023-01-05T09:54:09.571Z,2060.00
2023-01-05T09:55:10.532Z,3044.00
2023-01-05T09:56:09.532Z,4356.00
2023-01-05T09:57:10.664Z,7524.00
2023-01-05T09:58:10.513Z,10252.00
2023-01-05T09:59:09.486Z,17472.00
2023-01-05T10:00:09.502Z,11312.00
2023-01-05T10:01:09.531Z,12224.00
2023-01-05T10:02:09.490Z,11176.00
2023-01-05T10:03:11.060Z,7208.00
2023-01-05T10:04:10.539Z,8600.00
2023-01-05T10:05:09.650Z,7600.00
2023-01-05T10:06:09.474Z,6084.00
2023-01-05T10:07:09.448Z,5024.00
2023-01-05T10:08:09.462Z,5124.00
2023-01-05T10:09:09.416Z,5000.00
2023-01-05T10:10:09.403Z,6028.00
2023-01-05T10:11:09.436Z,5204.00
2023-01-05T10:12:09.418Z,6520.00
2023-01-05T10:13:09.413Z,5444.00
2023-01-05T10:14:09.366Z,9888.00
2023-01-05T10:15:09.391Z,6032.00
2023-01-05T10:16:09.545Z,13500.00
2023-01-05T10:17:39.742Z,5684.00
2023-01-05T10:18:10.400Z,5088.00
2023-01-05T10:19:09.462Z,4540.00
2023-01-05T10:20:09.383Z,3564.00
2023-01-05T10:21:09.363Z,3612.00
2023-01-05T10:22:09.442Z,4808.00
2023-01-05T10:23:09.347Z,5968.00
2023-01-05T10:24:09.358Z,4996.00
2023-01-05T10:25:09.329Z,4540.00
2023-01-05T10:26:09.319Z,3996.00
2023-01-05T10:27:26.223Z,3712.00
2023-01-05T10:28:11.312Z,3464.00
2023-01-05T10:29:09.328Z,3608.00
2023-01-05T10:30:09.339Z,3356.00
2023-01-05T10:31:09.373Z,3508.00
2023-01-05T10:32:09.291Z,3764.00
2023-01-05T10:33:25.895Z,3792.00
2023-01-05T10:34:16.079Z,4116.00
2023-01-05T10:35:33.991Z,5168.00
2023-01-05T10:36:13.037Z,6548.00
2023-01-05T10:37:10.495Z,7408.00
2023-01-05T10:38:09.418Z,8788.00
2023-01-05T10:39:09.252Z,12860.00
2023-01-05T10:40:09.247Z,14648.00
2023-01-05T10:41:09.233Z,10196.00
2023-01-05T10:42:09.229Z,7108.00
2023-01-05T10:43:09.188Z,3512.00
2023-01-05T10:44:09.421Z,2976.00
2023-01-05T10:45:09.215Z,2464.00
2023-01-05T10:47:11.254Z,2344.00
2023-01-05T10:48:09.192Z,2364.00
2023-01-05T10:49:09.196Z,2216.00
2023-01-05T10:50:09.192Z,2308.00
2023-01-05T10:51:09.182Z,2332.00
2023-01-05T10:52:09.206Z,1744.00
2023-01-05T10:53:09.175Z,1584.00
2023-01-05T10:54:09.143Z,1460.00
2023-01-05T10:55:09.306Z,1336.00
2023-01-05T10:56:09.141Z,1568.00
2023-01-05T10:57:09.135Z,1960.00
2023-01-05T10:58:09.109Z,2336.00
2023-01-05T10:59:09.181Z,2188.00
2023-01-05T11:00:09.209Z,2088.00
2023-01-05T11:01:09.223Z,1900.00
2023-01-05T11:02:09.178Z,1664.00
2023-01-05T11:03:09.093Z,1812.00
2023-01-05T11:04:33.192Z,2556.00
2023-01-05T11:05:11.146Z,3296.00
2023-01-05T11:06:09.064Z,4408.00
2023-01-05T11:07:09.149Z,6444.00
2023-01-05T11:08:09.075Z,7752.00
2023-01-05T11:09:09.064Z,8084.00
2023-01-05T11:10:09.042Z,7400.00
2023-01-05T11:11:09.128Z,5992.00
2023-01-05T11:12:09.047Z,6136.00
2023-01-05T11:13:09.020Z,8016.00
2023-01-05T11:14:09.053Z,9284.00
2023-01-05T11:15:09.019Z,7428.00
2023-01-05T11:16:09.136Z,7844.00
2023-01-05T11:17:09.055Z,9776.00
2023-01-05T11:18:09.025Z,10548.00
2023-01-05T11:19:08.983Z,10076.00
2023-01-05T11:20:08.975Z,71360.00
2023-01-05T11:21:09.024Z,35552.00
2023-01-05T11:22:09.105Z,66816.00
2023-01-05T11:23:09.070Z,12612.00
2023-01-05T11:24:09.007Z,34784.00
2023-01-05T11:25:08.991Z,63488.00
2023-01-05T11:26:08.960Z,29568.00
2023-01-05T11:27:09.063Z,70848.00
2023-01-05T11:28:08.981Z,74112.00
2023-01-05T11:29:08.967Z,69536.00
2023-01-05T11:30:08.937Z,62144.00
2023-01-05T11:31:08.944Z,8184.00
2023-01-05T11:32:08.915Z,60704.00
2023-01-05T11:33:13.670Z,56960.00
2023-01-05T11:34:09.951Z,56736.00
2023-01-05T11:35:08.922Z,28288.00
2023-01-05T11:36:08.885Z,61728.00
2023-01-05T11:37:08.918Z,15324.00
2023-01-05T11:38:09.040Z,16684.00
2023-01-05T11:39:08.986Z,10468.00
2023-01-05T11:40:08.900Z,69216.00
2023-01-05T11:41:08.858Z,65760.00
2023-01-05T11:42:08.852Z,51616.00
2023-01-05T11:43:08.847Z,57792.00
2023-01-05T11:44:08.896Z,39808.00
2023-01-05T11:45:08.872Z,52480.00
2023-01-05T11:46:08.922Z,34112.00
2023-01-05T11:47:08.861Z,19456.00
2023-01-05T11:48:08.828Z,28512.00
2023-01-05T11:49:08.924Z,55520.00
2023-01-05T11:50:09.861Z,12004.00
2023-01-05T11:51:09.809Z,10596.00
2023-01-05T11:52:08.825Z,9704.00
2023-01-05T11:53:08.859Z,15680.00
2023-01-05T11:54:08.811Z,12868.00
2023-01-05T11:55:08.887Z,8304.00
2023-01-05T11:56:08.808Z,8996.00
2023-01-05T11:57:08.766Z,31040.00
2023-01-05T11:58:08.768Z,21952.00
2023-01-05T11:59:08.774Z,8372.00
2023-01-05T12:00:08.877Z,7276.00
2023-01-05T12:01:08.830Z,6984.00
2023-01-05T12:02:08.717Z,6292.00
2023-01-05T12:03:08.778Z,6244.00
2023-01-05T12:04:08.799Z,5516.00
2023-01-05T12:05:08.753Z,5464.00
2023-01-05T12:06:09.761Z,6724.00
2023-01-05T12:07:08.734Z,5440.00
2023-01-05T12:08:08.745Z,5284.00
2023-01-05T12:09:08.720Z,7580.00
2023-01-05T12:10:08.683Z,39104.00
2023-01-05T12:11:08.801Z,29440.00
2023-01-05T12:12:08.734Z,53056.00
2023-01-05T12:13:08.672Z,38784.00
2023-01-05T12:14:08.690Z,10072.00
2023-01-05T12:15:08.711Z,9864.00
2023-01-05T12:16:08.683Z,7444.00
2023-01-05T12:17:08.690Z,6472.00
2023-01-05T12:18:08.676Z,6152.00
2023-01-05T12:19:08.682Z,7076.00
2023-01-05T12:20:08.655Z,7232.00
2023-01-05T12:21:08.700Z,6696.00
2023-01-05T12:22:09.683Z,5592.00
2023-01-05T12:23:08.658Z,5188.00
2023-01-05T12:24:08.619Z,4892.00
2023-01-05T12:25:08.602Z,4736.00
2023-01-05T12:26:08.604Z,4256.00
2023-01-05T12:27:08.674Z,7616.00
2023-01-05T12:28:08.615Z,4080.00
2023-01-05T12:32:12.905Z,3928.00
2023-01-05T12:34:13.615Z,3880.00
2023-01-05T12:35:09.524Z,4036.00
2023-01-05T12:36:08.563Z,3760.00
2023-01-05T12:37:08.660Z,3444.00
2023-01-05T12:38:08.535Z,3144.00
2023-01-05T12:39:08.537Z,2968.00
2023-01-05T12:40:08.541Z,3144.00
2023-01-05T12:41:08.512Z,3252.00
2023-01-05T12:42:08.564Z,3660.00
2023-01-05T12:43:08.478Z,3896.00
2023-01-05T12:44:08.512Z,3792.00
2023-01-05T12:45:08.528Z,3064.00
2023-01-05T12:46:08.521Z,2840.00
2023-01-05T12:47:08.462Z,3072.00
2023-01-05T12:48:08.728Z,3248.00
2023-01-05T12:49:08.487Z,3380.00
2023-01-05T12:50:08.446Z,3620.00
2023-01-05T12:51:08.470Z,3532.00